Time;durP1;ratioP1;P1;durP2;ratioP2;P2;SDS_P1;SDS_P2;PMS_P1;PMS_P2;Temp;Humidity;BMP_temperature;BMP_pressure;BME280_temperature;BME280_humidity;BME280_pressure;Samples;Min_cycle;Max_cycle;Signal;HPM_P1;HPM_P2
2022/09/15 00:00:20;;;;;;;13.60;6.22;;;589.00;2432.00;;;;;;5133920;27;20131;-77
2022/09/15 00:02:46;;;;;;;12.95;6.53;;;564.10;2432.00;;;;;;5095118;28;20020;-77
2022/09/15 00:05:12;;;;;;;15.20;7.90;;;589.20;2432.00;;;;;;5092407;28;20082;-77
2022/09/15 00:07:38;;;;;;;15.27;6.45;;;589.20;2432.00;;;;;;5095117;28;20488;-77
2022/09/15 00:10:05;;;;;;;13.93;7.15;;;589.20;2432.00;;;;;;5091610;28;20063;-76
2022/09/15 00:12:31;;;;;;;14.50;7.05;;;589.20;2432.00;;;;;;5099605;28;20020;-77
2022/09/15 00:14:57;;;;;;;16.60;7.22;;;589.10;2432.00;;;;;;5097785;28;20027;-76
2022/09/15 00:17:23;;;;;;;14.52;6.82;;;589.10;2432.00;;;;;;5093371;28;20032;-77
2022/09/15 00:19:49;;;;;;;13.95;7.18;;;589.20;2432.00;;;;;;5090818;28;20035;-77
2022/09/15 00:22:15;;;;;;;13.30;7.00;;;589.30;2432.00;;;;;;5094524;28;20593;-77
2022/09/15 00:24:41;;;;;;;14.73;7.43;;;589.30;2432.00;;;;;;5096336;28;20041;-77
2022/09/15 00:27:07;;;;;;;15.10;7.00;;;589.20;2432.00;;;;;;5091952;28;20024;-77
2022/09/15 00:29:34;;;;;;;20.52;8.07;;;589.20;2432.00;;;;;;5091228;28;20024;-76
2022/09/15 00:32:00;;;;;;;12.57;7.38;;;589.30;2432.00;;;;;;5096231;28;20012;-77
2022/09/15 00:34:26;;;;;;;12.90;7.82;;;589.30;2432.00;;;;;;5093029;28;20085;-77
2022/09/15 00:36:52;;;;;;;14.52;7.10;;;589.20;2432.00;;;;;;5094776;28;20020;-77
2022/09/15 00:39:17;;;;;;;13.55;7.32;;;589.10;2432.00;;;;;;5092962;28;20028;-77
2022/09/15 00:41:43;;;;;;;17.00;7.68;;;589.20;2432.00;;;;;;5133154;27;20036;-78
2022/09/15 00:44:15;;;;;;;12.68;8.15;;;589.10;2432.00;;;;;;5130151;27;20477;-77
2022/09/15 00:46:44;;;;;;;11.40;7.03;;;589.10;2432.00;;;;;;5093467;28;20084;-77
2022/09/15 00:49:12;;;;;;;18.67;6.93;;;589.00;2432.00;;;;;;5091839;28;20039;-77
2022/09/15 00:51:49;;;;;;;13.45;7.15;;;589.00;2432.00;;;;;;5090389;28;20035;-77
2022/09/15 00:54:30;;;;;;;15.00;6.85;;;589.00;2432.00;;;;;;5089787;28;20535;-77
2022/09/15 00:57:05;;;;;;;14.35;6.85;;;589.00;2432.00;;;;;;5103503;28;20032;-77
2022/09/15 00:59:34;;;;;;;17.63;6.80;;;589.00;2432.00;;;;;;5088754;28;20431;-77
2022/09/15 01:02:21;;;;;;;11.10;6.75;;;589.00;2432.00;;;;;;5090171;28;20024;-77
2022/09/15 01:04:49;;;;;;;11.18;6.15;;;589.00;2432.00;;;;;;5093727;28;20024;-77
2022/09/15 01:07:20;;;;;;;12.38;6.05;;;589.00;2432.00;;;;;;5095476;28;20020;-77
2022/09/15 01:09:59;;;;;;;15.07;6.03;;;589.00;2432.00;;;;;;5094627;28;20032;-77
2022/09/15 01:12:26;;;;;;;12.38;6.80;;;589.00;2432.00;;;;;;5097369;28;20024;-76
2022/09/15 01:14:52;;;;;;;17.27;7.03;;;564.10;2432.00;;;;;;5130150;27;20016;-77
2022/09/15 01:17:41;;;;;;;12.63;6.22;;;564.10;2432.00;;;;;;5091229;28;20377;-76
2022/09/15 01:20:30;;;;;;;12.07;6.22;;;564.00;2432.00;;;;;;5091314;28;20032;-76
2022/09/15 01:22:58;;;;;;;14.93;6.97;;;564.10;2432.00;;;;;;5095917;27;20025;-76
2022/09/15 01:25:51;;;;;;;11.52;6.35;;;564.10;2432.00;;;;;;5091356;28;20020;-77
2022/09/15 01:29:07;;;;;;;9.68;5.93;;;564.10;2432.00;;;;;;5089956;28;20020;-77
2022/09/15 01:34:37;;;;;;;9.38;5.43;;;588.80;2432.00;;;;;;5117752;28;20026;-77
2022/09/15 01:37:09;;;;;;;13.77;6.57;;;564.10;2432.00;;;;;;5120576;28;20031;-77
2022/09/15 01:39:40;;;;;;;9.63;5.40;;;588.80;2432.00;;;;;;5110144;28;20085;-77
2022/09/15 01:42:11;;;;;;;12.63;5.43;;;588.80;2432.00;;;;;;5120658;27;20083;-77
2022/09/15 01:44:46;;;;;;;11.60;5.68;;;588.80;2432.00;;;;;;5096388;28;20111;-76
2022/09/15 01:47:15;;;;;;;13.30;6.40;;;588.80;2432.00;;;;;;5113504;27;20088;-77
2022/09/15 01:49:52;;;;;;;10.40;5.10;;;588.80;2432.00;;;;;;5106294;27;20271;-77
2022/09/15 01:52:21;;;;;;;10.85;5.40;;;588.80;2432.00;;;;;;5122588;27;20028;-77
2022/09/15 01:54:50;;;;;;;11.90;5.80;;;588.80;2432.00;;;;;;5122560;27;20027;-77
2022/09/15 01:57:20;;;;;;;11.18;5.68;;;588.80;2432.00;;;;;;5101172;28;20042;-77
2022/09/15 01:59:46;;;;;;;17.40;5.22;;;588.80;2432.00;;;;;;5107064;27;20053;-77
2022/09/15 02:02:31;;;;;;;10.70;4.65;;;588.80;2432.00;;;;;;5121862;27;20023;-77
2022/09/15 02:05:02;;;;;;;15.32;5.03;;;588.80;2432.00;;;;;;5119793;27;20103;-77
2022/09/15 02:07:43;;;;;;;12.18;5.18;;;588.80;2432.00;;;;;;5107240;28;20378;-77
2022/09/15 02:10:18;;;;;;;13.57;4.93;;;588.90;2432.00;;;;;;5096893;28;20055;-77
2022/09/15 02:13:24;;;;;;;12.32;5.10;;;589.00;2432.00;;;;;;5078215;28;20028;-77
2022/09/15 02:15:55;;;;;;;13.90;5.32;;;588.90;2432.00;;;;;;5123993;27;20031;-77
2022/09/15 02:18:33;;;;;;;8.32;5.00;;;588.80;2432.00;;;;;;5113826;27;20054;-77
2022/09/15 02:21:14;;;;;;;11.80;4.78;;;588.80;2432.00;;;;;;5122362;27;20110;-77
2022/09/15 02:23:46;;;;;;;13.00;5.35;;;588.80;2432.00;;;;;;5103208;27;20023;-77
2022/09/15 02:26:18;;;;;;;12.75;4.55;;;588.80;2432.00;;;;;;5106710;27;20027;-77
2022/09/15 02:28:47;;;;;;;8.73;5.40;;;564.10;2432.00;;;;;;5122930;27;20024;-77
2022/09/15 02:31:16;;;;;;;14.15;7.20;;;564.10;2432.00;;;;;;5103641;27;20062;-77
2022/09/15 02:33:52;;;;;;;9.10;5.20;;;564.10;2432.00;;;;;;5105493;27;20062;-77
2022/09/15 02:36:19;;;;;;;13.32;5.28;;;564.10;2432.00;;;;;;5122020;27;20043;-77
2022/09/15 02:38:57;;;;;;;12.82;5.95;;;564.10;2432.00;;;;;;5104552;27;20068;-77
2022/09/15 02:41:23;;;;;;;9.10;4.60;;;564.10;2432.00;;;;;;5120677;27;20503;-77
2022/09/15 02:43:49;;;;;;;9.38;4.93;;;564.00;2432.00;;;;;;5096936;27;20027;-77
2022/09/15 02:46:18;;;;;;;10.00;5.18;;;564.00;2432.00;;;;;;5103742;28;20026;-77
2022/09/15 02:48:44;;;;;;;11.90;5.20;;;563.90;2432.00;;;;;;5117990;27;20023;-77
2022/09/15 02:51:10;;;;;;;8.90;4.57;;;563.90;2432.00;;;;;;5096435;28;20028;-77
2022/09/15 02:53:36;;;;;;;9.45;4.60;;;563.80;2432.00;;;;;;5096140;28;20043;-76
2022/09/15 02:56:06;;;;;;;10.32;4.88;;;563.80;2432.00;;;;;;5099150;28;20027;-77
2022/09/15 02:58:33;;;;;;;9.73;5.05;;;563.70;2432.00;;;;;;5093780;28;20087;-77
2022/09/15 03:01:03;;;;;;;13.95;5.13;;;563.60;2432.00;;;;;;5087213;28;20490;-77
2022/09/15 03:03:31;;;;;;;13.02;5.13;;;563.60;2432.00;;;;;;5096663;28;20109;-77
2022/09/15 03:06:15;;;;;;;21.90;7.13;;;563.50;2432.00;;;;;;5093468;28;20027;-77
2022/09/15 03:08:49;;;;;;;10.20;5.20;;;563.50;2432.00;;;;;;5094366;28;20111;-77
2022/09/15 03:11:18;;;;;;;13.23;5.40;;;563.50;2432.00;;;;;;5097495;28;20044;-76
2022/09/15 03:13:44;;;;;;;13.88;5.55;;;563.40;2432.00;;;;;;5097620;28;20103;-76
2022/09/15 03:16:11;;;;;;;22.15;6.15;;;563.20;2432.00;;;;;;5095197;28;20028;-77
2022/09/15 03:18:38;;;;;;;13.65;5.22;;;563.30;2432.00;;;;;;5137241;27;20428;-77
2022/09/15 03:21:06;;;;;;;9.25;4.65;;;563.30;2432.00;;;;;;5093296;28;20036;-76
2022/09/15 03:23:32;;;;;;;14.98;4.38;;;563.30;2432.00;;;;;;5094320;28;20020;-77
2022/09/15 03:25:58;;;;;;;12.88;4.70;;;563.30;2432.00;;;;;;5099046;28;20073;-77
2022/09/15 03:28:25;;;;;;;14.77;5.47;;;563.40;2432.00;;;;;;5094102;28;20024;-77
2022/09/15 03:30:53;;;;;;;9.43;4.32;;;563.50;2432.00;;;;;;5093006;28;20030;-77
2022/09/15 03:33:20;;;;;;;9.20;4.07;;;563.50;2432.00;;;;;;5098650;28;20020;-77
2022/09/15 03:35:48;;;;;;;7.80;3.70;;;563.60;2432.00;;;;;;5095605;28;20061;-77
2022/09/15 03:38:15;;;;;;;8.93;4.00;;;563.60;2432.00;;;;;;5099334;28;20047;-77
2022/09/15 03:40:44;;;;;;;12.13;5.20;;;563.60;2432.00;;;;;;5098206;28;20066;-77
2022/09/15 03:43:11;;;;;;;9.00;4.00;;;563.70;2432.00;;;;;;5097063;28;20381;-77
2022/09/15 03:45:37;;;;;;;11.75;4.25;;;563.70;2432.00;;;;;;5091375;28;20032;-77
2022/09/15 03:48:07;;;;;;;10.25;3.70;;;563.80;2432.00;;;;;;5092644;28;20027;-77
2022/09/15 03:50:33;;;;;;;9.38;3.80;;;563.80;2432.00;;;;;;5134076;27;20020;-77
2022/09/15 03:53:00;;;;;;;5.72;3.75;;;563.80;2432.00;;;;;;5091261;28;20505;-77
2022/09/15 03:55:27;;;;;;;8.55;3.88;;;563.80;2432.00;;;;;;5097657;28;20026;-77
2022/09/15 03:57:53;;;;;;;9.93;4.38;;;563.80;2432.00;;;;;;5092358;28;20019;-77
2022/09/15 04:00:20;;;;;;;8.88;4.60;;;563.70;2432.00;;;;;;5091221;28;20035;-77
2022/09/15 04:02:45;;;;;;;10.43;4.97;;;563.70;2432.00;;;;;;5133543;27;20055;-77
2022/09/15 04:05:12;;;;;;;8.90;4.43;;;563.60;2432.00;;;;;;5096240;28;20056;-77
2022/09/15 04:07:39;;;;;;;15.75;5.35;;;563.60;2432.00;;;;;;5094072;28;20046;-77
2022/09/15 04:10:07;;;;;;;10.13;4.68;;;563.50;2432.00;;;;;;5097171;28;20153;-77
2022/09/15 04:12:33;;;;;;;11.35;4.57;;;563.40;2432.00;;;;;;5091072;28;20093;-77
2022/09/15 04:14:59;;;;;;;14.63;4.72;;;563.30;2432.00;;;;;;5133375;27;20144;-78
2022/09/15 04:17:26;;;;;;;15.02;5.65;;;563.30;2432.00;;;;;;5133627;27;20054;-77
2022/09/15 04:19:52;;;;;;;13.27;4.93;;;563.30;2432.00;;;;;;5091931;28;20050;-77
2022/09/15 04:22:18;;;;;;;11.35;5.00;;;563.30;2432.00;;;;;;5091955;28;20103;-77
2022/09/15 04:24:43;;;;;;;11.50;4.63;;;563.30;2432.00;;;;;;5133299;27;20024;-77
2022/09/15 04:27:09;;;;;;;17.70;4.97;;;563.30;2432.00;;;;;;5091979;28;20027;-77
2022/09/15 04:29:35;;;;;;;9.13;5.13;;;563.30;2432.00;;;;;;5097559;28;20024;-78
2022/09/15 04:32:01;;;;;;;9.25;4.20;;;563.30;2432.00;;;;;;5090488;28;20127;-77
2022/09/15 04:34:27;;;;;;;14.80;5.20;;;563.20;2432.00;;;;;;5096322;28;20172;-77
2022/09/15 04:36:52;;;;;;;9.73;4.95;;;563.30;2432.00;;;;;;5094573;28;20373;-78
2022/09/15 04:39:18;;;;;;;10.68;4.78;;;563.20;2432.00;;;;;;5136063;27;20039;-79
2022/09/15 04:41:44;;;;;;;11.70;4.32;;;563.20;2432.00;;;;;;5090776;28;20032;-79
2022/09/15 04:44:10;;;;;;;19.58;5.45;;;563.20;2432.00;;;;;;5099286;28;20069;-79
2022/09/15 04:46:36;;;;;;;10.18;4.57;;;563.20;2432.00;;;;;;5101564;28;20027;-79
2022/09/15 04:49:01;;;;;;;13.75;5.13;;;563.30;2432.00;;;;;;5097751;28;20028;-81
2022/09/15 04:51:27;;;;;;;10.13;4.72;;;563.30;2432.00;;;;;;5099679;28;20358;-81
2022/09/15 04:53:53;;;;;;;12.73;5.03;;;563.30;2432.00;;;;;;5099027;28;20031;-80
2022/09/15 04:56:22;;;;;;;12.90;5.30;;;563.20;2432.00;;;;;;5101907;28;20111;-79
2022/09/15 04:58:53;;;;;;;12.77;5.28;;;538.50;2406.40;;;;;;5093640;28;20374;-78
2022/09/15 05:01:21;;;;;;;15.95;5.50;;;538.50;2406.40;;;;;;5091087;28;20024;-78
2022/09/15 05:03:47;;;;;;;10.73;4.95;;;538.30;2406.40;;;;;;5092496;28;20024;-82
2022/09/15 05:06:15;;;;;;;22.42;9.40;;;538.30;2406.40;;;;;;5091273;28;20465;-78
2022/09/15 05:08:42;;;;;;;13.18;5.35;;;538.30;2406.40;;;;;;5090699;28;20032;-78
2022/09/15 05:11:10;;;;;;;9.30;4.90;;;538.00;2406.40;;;;;;5100733;28;20040;-79
2022/09/15 05:13:37;;;;;;;16.48;5.38;;;563.50;2432.00;;;;;;5096045;28;20020;-79
2022/09/15 05:16:06;;;;;;;11.30;4.95;;;563.20;2432.00;;;;;;5092765;28;20478;-79
2022/09/15 05:18:32;;;;;;;13.93;4.82;;;563.20;2432.00;;;;;;5096528;28;20016;-77
2022/09/15 05:21:03;;;;;;;9.25;4.18;;;563.30;2432.00;;;;;;5096005;28;20154;-78
2022/09/15 05:23:29;;;;;;;6.72;4.20;;;563.40;2432.00;;;;;;5095028;28;20381;-77
2022/09/15 05:25:56;;;;;;;11.73;4.50;;;563.50;2432.00;;;;;;5094903;28;20031;-78
2022/09/15 05:28:23;;;;;;;9.52;4.30;;;563.60;2432.00;;;;;;5094957;28;20383;-78
2022/09/15 05:30:51;;;;;;;9.65;4.72;;;563.70;2432.00;;;;;;5094384;28;20027;-79
2022/09/15 05:33:17;;;;;;;10.65;4.47;;;563.70;2432.00;;;;;;5095991;28;20028;-78
2022/09/15 05:35:57;;;;;;;16.17;4.28;;;563.70;2432.00;;;;;;5128701;27;20111;-77
2022/09/15 05:38:24;;;;;;;7.60;4.38;;;563.80;2432.00;;;;;;5095607;28;20032;-77
2022/09/15 05:40:50;;;;;;;12.73;4.47;;;563.90;2432.00;;;;;;5095868;28;20051;-78
2022/09/15 05:43:17;;;;;;;10.02;4.07;;;563.90;2432.00;;;;;;5094522;28;20051;-78
2022/09/15 05:45:43;;;;;;;13.05;4.80;;;563.90;2432.00;;;;;;5095893;28;20081;-78
2022/09/15 05:48:10;;;;;;;9.73;4.65;;;588.80;2432.00;;;;;;5095663;28;20043;-78
2022/09/15 05:50:38;;;;;;;15.50;4.72;;;564.00;2432.00;;;;;;5095671;28;20024;-76
2022/09/15 05:53:04;;;;;;;7.88;4.13;;;564.10;2432.00;;;;;;5094368;28;20119;-78
2022/09/15 05:55:35;;;;;;;9.05;4.45;;;588.80;2432.00;;;;;;5095302;28;20028;-76
2022/09/15 05:58:01;;;;;;;7.82;4.53;;;564.00;2432.00;;;;;;5094325;28;20020;-77
2022/09/15 06:00:27;;;;;;;11.20;4.75;;;564.00;2432.00;;;;;;5094332;28;20516;-78
2022/09/15 06:02:52;;;;;;;11.13;4.30;;;564.00;2432.00;;;;;;5094298;28;20118;-77
2022/09/15 06:05:18;;;;;;;11.77;5.47;;;564.00;2432.00;;;;;;5094123;28;20127;-78
2022/09/15 06:07:44;;;;;;;14.18;4.70;;;564.00;2432.00;;;;;;5105774;28;20042;-77
2022/09/15 06:10:10;;;;;;;7.68;4.03;;;564.10;2432.00;;;;;;5097779;28;20059;-78
2022/09/15 06:12:35;;;;;;;13.52;5.32;;;564.10;2432.00;;;;;;5114018;28;20024;-78
2022/09/15 06:15:01;;;;;;;10.35;4.13;;;564.10;2432.00;;;;;;5097898;28;20020;-77
2022/09/15 06:17:27;;;;;;;10.48;4.50;;;588.80;2432.00;;;;;;5094207;28;20033;-78
2022/09/15 06:19:53;;;;;;;8.90;3.60;;;588.90;2432.00;;;;;;5127921;27;20085;-77
2022/09/15 06:22:19;;;;;;;15.90;5.38;;;589.00;2432.00;;;;;;5093859;28;20535;-78
2022/09/15 06:24:45;;;;;;;12.68;4.72;;;589.00;2432.00;;;;;;5128002;27;20028;-78
2022/09/15 06:27:11;;;;;;;20.13;4.60;;;589.20;2432.00;;;;;;5093858;28;20086;-78
2022/09/15 06:29:37;;;;;;;9.93;4.20;;;589.30;2432.00;;;;;;5095329;28;20111;-77
2022/09/15 06:32:03;;;;;;;13.98;4.93;;;589.50;2432.00;;;;;;5127551;27;20161;-77
2022/09/15 06:34:31;;;;;;;11.18;4.55;;;589.60;2432.00;;;;;;5094667;28;20028;-78
2022/09/15 06:37:00;;;;;;;6.93;3.97;;;589.70;2432.00;;;;;;5093436;28;20495;-78
2022/09/15 06:39:26;;;;;;;11.90;4.03;;;614.50;2432.00;;;;;;5127293;27;20035;-78
2022/09/15 06:41:52;;;;;;;14.15;4.57;;;614.60;2432.00;;;;;;5093888;28;20036;-77
2022/09/15 06:44:20;;;;;;;9.57;3.78;;;614.80;2432.00;;;;;;5097060;28;20031;-77
2022/09/15 06:46:47;;;;;;;13.57;4.53;;;614.80;2432.00;;;;;;5104795;27;20445;-77
2022/09/15 06:49:13;;;;;;;11.40;3.88;;;614.90;2432.00;;;;;;5092973;28;20051;-77
2022/09/15 06:51:38;;;;;;;9.65;4.15;;;615.10;2432.00;;;;;;5094526;28;20458;-77
2022/09/15 06:54:05;;;;;;;9.70;3.75;;;615.10;2432.00;;;;;;5093053;28;20027;-77
2022/09/15 06:56:32;;;;;;;13.13;3.75;;;614.90;2432.00;;;;;;5093325;28;20047;-78
2022/09/15 06:58:58;;;;;;;5.63;3.45;;;640.00;2432.00;;;;;;5094321;28;20077;-78
2022/09/15 07:01:30;;;;;;;11.73;3.45;;;640.20;2432.00;;;;;;5093156;28;20115;-76
2022/09/15 07:03:57;;;;;;;12.48;4.28;;;640.30;2432.00;;;;;;5092800;28;20023;-78
2022/09/15 07:06:26;;;;;;;8.23;4.07;;;640.40;2432.00;;;;;;5092950;28;20042;-77
2022/09/15 07:08:52;;;;;;;8.57;3.35;;;640.50;2432.00;;;;;;5094022;28;20029;-78
2022/09/15 07:11:19;;;;;;;7.75;3.72;;;640.60;2432.00;;;;;;5102733;28;20127;-77
2022/09/15 07:13:46;;;;;;;10.05;4.05;;;640.60;2432.00;;;;;;5097292;27;20024;-78
2022/09/15 07:16:13;;;;;;;10.02;4.15;;;640.70;2432.00;;;;;;5092799;28;20127;-78
2022/09/15 07:18:38;;;;;;;9.05;3.70;;;640.80;2432.00;;;;;;5093976;28;20027;-77
2022/09/15 07:21:08;;;;;;;8.00;3.70;;;640.90;2432.00;;;;;;5093741;28;20024;-77
2022/09/15 07:23:34;;;;;;;6.65;3.15;;;640.90;2432.00;;;;;;5092596;28;20020;-78
2022/09/15 07:26:13;;;;;;;7.53;3.63;;;640.90;2432.00;;;;;;5093986;28;20024;-77
2022/09/15 07:28:41;;;;;;;8.50;3.30;;;665.60;2432.00;;;;;;5106509;28;20024;-79
2022/09/15 07:31:08;;;;;;;12.52;5.60;;;665.70;2432.00;;;;;;5094697;28;20024;-81
2022/09/15 07:33:35;;;;;;;30.67;14.75;;;665.70;2432.00;;;;;;5091726;28;20024;-78
2022/09/15 07:36:02;;;;;;;24.35;13.50;;;665.70;2432.00;;;;;;5093349;28;20031;-79
2022/09/15 07:38:28;;;;;;;36.00;15.02;;;665.80;2432.00;;;;;;5092619;28;20804;-78
2022/09/15 07:40:54;;;;;;;51.20;25.02;;;665.90;2432.00;;;;;;5093000;28;20043;-78
2022/09/15 07:43:19;;;;;;;102.50;51.13;;;665.90;2432.00;;;;;;5126223;27;20030;-78
2022/09/15 07:45:45;;;;;;;90.53;47.47;;;666.00;2432.00;;;;;;5092075;28;20116;-78
2022/09/15 07:48:11;;;;;;;66.30;32.47;;;666.00;2432.00;;;;;;5093202;28;20023;-77
2022/09/15 07:50:37;;;;;;;49.90;27.58;;;666.20;2406.40;;;;;;5093165;28;20077;-78
2022/09/15 07:53:03;;;;;;;119.78;73.10;;;666.20;2252.80;;;;;;5092202;28;20024;-77
2022/09/15 07:55:29;;;;;;;98.43;58.10;;;666.30;2201.60;;;;;;5091794;28;20085;-78
2022/09/15 07:58:02;;;;;;;74.82;38.85;;;666.30;2150.40;;;;;;5091876;28;20024;-79
2022/09/15 08:00:28;;;;;;;49.08;25.58;;;666.40;2099.20;;;;;;5091758;28;20036;-78
2022/09/15 08:02:55;;;;;;;20.67;9.93;;;666.50;2099.20;;;;;;5105985;28;20032;-77
2022/09/15 08:05:22;;;;;;;25.23;10.27;;;691.40;2048.00;;;;;;5092901;28;20031;-78
2022/09/15 08:07:48;;;;;;;52.05;25.70;;;691.20;2073.60;;;;;;5091466;28;20021;-78
2022/09/15 08:10:14;;;;;;;37.05;25.88;;;691.20;2073.60;;;;;;5092237;28;20113;-78
2022/09/15 08:12:40;;;;;;;41.92;31.38;;;691.20;2048.00;;;;;;5106177;28;20112;-78
2022/09/15 08:15:07;;;;;;;38.47;20.52;;;691.30;2073.60;;;;;;5091715;28;20032;-78
2022/09/15 08:17:33;;;;;;;87.43;33.50;;;691.40;2048.00;;;;;;5091422;28;20028;-78
2022/09/15 08:19:59;;;;;;;59.88;36.55;;;691.40;1996.80;;;;;;5125683;27;20043;-79
2022/09/15 08:22:25;;;;;;;49.28;18.13;;;691.40;1920.00;;;;;;5090945;28;20024;-79
2022/09/15 08:24:51;;;;;;;21.75;7.40;;;691.40;1920.00;;;;;;5125696;27;20028;-79
2022/09/15 08:27:16;;;;;;;24.40;9.95;;;691.40;1894.40;;;;;;5092527;28;20093;-81
2022/09/15 08:29:42;;;;;;;24.05;10.38;;;691.40;1945.60;;;;;;5092283;28;20112;-78
2022/09/15 08:32:08;;;;;;;19.50;9.50;;;691.40;1920.00;;;;;;5135114;27;20016;-79
2022/09/15 08:34:34;;;;;;;25.63;6.63;;;691.40;1971.20;;;;;;5089779;28;20453;-78
2022/09/15 08:36:59;;;;;;;27.80;10.75;;;691.40;1971.20;;;;;;5093079;28;20028;-78
2022/09/15 08:39:25;;;;;;;12.32;3.80;;;691.40;1971.20;;;;;;5090033;28;20419;-79
2022/09/15 08:41:52;;;;;;;5.35;2.60;;;691.40;1945.60;;;;;;5091146;28;20046;-79
2022/09/15 08:44:45;;;;;;;15.05;2.58;;;691.50;1945.60;;;;;;5090913;28;20024;-78
2022/09/15 08:47:14;;;;;;;9.95;3.47;;;691.40;1920.00;;;;;;5079793;28;20040;-79
2022/09/15 08:49:47;;;;;;;13.98;3.60;;;691.30;1843.20;;;;;;5091152;28;20489;-78
2022/09/15 08:52:40;;;;;;;14.98;3.50;;;691.20;1843.20;;;;;;5094867;28;20031;-78
2022/09/15 08:55:14;;;;;;;11.65;2.80;;;691.20;1868.80;;;;;;5069281;28;20118;-79
2022/09/15 08:57:40;;;;;;;11.05;3.15;;;666.50;1868.80;;;;;;5091981;28;20036;-78
2022/09/15 09:00:18;;;;;;;8.82;2.75;;;666.50;1868.80;;;;;;5051970;28;20114;-79
2022/09/15 09:03:15;;;;;;;17.15;8.60;;;666.40;1868.80;;;;;;5071447;28;20556;-79
2022/09/15 09:05:57;;;;;;;149.45;72.30;;;666.30;1894.40;;;;;;5051926;28;20041;-78
2022/09/15 09:08:48;;;;;;;154.70;82.47;;;666.30;1971.20;;;;;;5093928;28;20120;-78
2022/09/15 09:11:25;;;;;;;192.43;99.65;;;666.20;1945.60;;;;;;5070011;28;20056;-78
2022/09/15 09:14:03;;;;;;;196.90;94.75;;;666.20;1996.80;;;;;;5064541;28;20040;-78
2022/09/15 09:16:45;;;;;;;98.38;51.80;;;666.20;1996.80;;;;;;5056075;28;20021;-78
2022/09/15 09:19:28;;;;;;;130.65;63.42;;;666.20;1996.80;;;;;;5067100;28;20032;-78
2022/09/15 09:22:06;;;;;;;98.78;49.90;;;666.20;2022.40;;;;;;5057156;28;20032;-78
2022/09/15 09:24:59;;;;;;;77.72;39.08;;;666.20;2022.40;;;;;;5052693;28;20028;-78
2022/09/15 09:27:33;;;;;;;28.83;14.60;;;666.30;1996.80;;;;;;5066344;28;20120;-78
2022/09/15 09:30:12;;;;;;;19.90;10.02;;;666.30;1996.80;;;;;;5052720;28;20029;-78
2022/09/15 09:32:44;;;;;;;21.40;8.93;;;666.40;1971.20;;;;;;5076693;28;20424;-78
2022/09/15 09:35:33;;;;;;;17.45;7.53;;;666.50;1971.20;;;;;;5124709;27;20028;-78
2022/09/15 09:38:01;;;;;;;22.25;7.72;;;666.50;1945.60;;;;;;5091614;28;20100;-78
2022/09/15 09:40:30;;;;;;;12.85;6.93;;;691.20;1945.60;;;;;;5090649;28;20444;-78
2022/09/15 09:42:56;;;;;;;7.03;3.20;;;666.50;1945.60;;;;;;5090379;28;20055;-77
2022/09/15 09:45:22;;;;;;;11.75;4.15;;;691.30;1945.60;;;;;;5090503;28;20039;-78
2022/09/15 09:47:48;;;;;;;15.45;3.30;;;691.40;1971.20;;;;;;5091754;28;20024;-77
2022/09/15 09:50:42;;;;;;;11.50;3.10;;;691.40;1945.60;;;;;;5091537;28;20098;-78
2022/09/15 09:53:32;;;;;;;17.65;2.83;;;691.50;1945.60;;;;;;5090545;28;20016;-77
2022/09/15 09:56:11;;;;;;;7.88;2.97;;;691.60;1971.20;;;;;;5078582;28;20456;-77
2022/09/15 09:58:37;;;;;;;9.80;2.47;;;691.60;2022.40;;;;;;5090351;28;20032;-78
2022/09/15 10:01:14;;;;;;;9.32;2.40;;;691.50;1996.80;;;;;;5091500;28;20091;-77
2022/09/15 10:03:42;;;;;;;7.80;2.38;;;691.50;1971.20;;;;;;5093042;28;20024;-78
2022/09/15 10:06:15;;;;;;;9.07;2.30;;;691.40;1971.20;;;;;;5095345;28;20922;-79
2022/09/15 10:09:04;;;;;;;12.93;1.95;;;691.40;1971.20;;;;;;5093884;28;20458;-78
2022/09/15 10:12:06;;;;;;;7.70;2.50;;;691.40;1971.20;;;;;;5106972;28;20553;-78
2022/09/15 10:14:39;;;;;;;11.77;2.55;;;691.60;1971.20;;;;;;5044632;28;20036;-78
2022/09/15 10:17:21;;;;;;;4.50;2.17;;;691.60;2022.40;;;;;;5072561;28;20035;-79
2022/09/15 10:19:58;;;;;;;7.10;2.70;;;691.60;2048.00;;;;;;5055613;28;20080;-78
2022/09/15 10:22:38;;;;;;;8.85;2.47;;;691.60;2048.00;;;;;;5069855;28;20453;-79
2022/09/15 10:25:19;;;;;;;6.68;2.33;;;691.50;2022.40;;;;;;5054573;28;20502;-79
2022/09/15 10:28:00;;;;;;;8.55;2.30;;;691.50;2022.40;;;;;;5074093;28;20036;-80
2022/09/15 10:30:26;;;;;;;5.13;2.40;;;691.50;2022.40;;;;;;5064314;28;20512;-79
2022/09/15 10:32:52;;;;;;;12.07;2.50;;;691.50;2048.00;;;;;;5089029;28;20028;-80
2022/09/15 10:35:20;;;;;;;6.43;2.15;;;691.40;2073.60;;;;;;5067266;28;20051;-80
2022/09/15 10:38:15;;;;;;;4.72;2.00;;;691.50;2073.60;;;;;;5077766;28;20028;-80
2022/09/15 10:41:05;;;;;;;10.60;2.50;;;691.60;2048.00;;;;;;5067391;28;20070;-81
2022/09/15 10:43:45;;;;;;;5.15;2.05;;;691.60;2073.60;;;;;;5078016;28;20067;-79
2022/09/15 10:46:26;;;;;;;10.50;2.60;;;691.60;2073.60;;;;;;5072490;28;20107;-79
2022/09/15 10:49:03;;;;;;;8.30;2.38;;;691.60;2099.20;;;;;;5086670;28;20036;-79
2022/09/15 10:52:00;;;;;;;12.57;2.75;;;691.70;2073.60;;;;;;5093304;28;20059;-80
2022/09/15 10:54:29;;;;;;;;;;;691.80;2022.40;;;;;;5095964;28;20036;-81
2022/09/15 10:57:03;;;;;;;6.82;2.20;;;692.00;1996.80;;;;;;5124802;27;20353;-79
2022/09/15 10:59:52;;;;;;;12.65;2.17;;;717.10;1945.60;;;;;;5092973;28;20482;-78
2022/09/15 11:02:37;;;;;;;5.50;2.22;;;;;;;;;;5094997;28;20024;-82
2022/09/15 11:05:24;;;;;;;6.65;2.03;;;742.40;1920.00;;;;;;5093734;28;20482;-86
2022/09/15 11:08:11;;;;;;;6.10;2.33;;;742.80;1843.20;;;;;;5092456;28;20035;-81
2022/09/15 11:11:01;;;;;;;7.93;2.55;;;742.90;1766.40;;;;;;5105007;28;20044;-81
2022/09/15 11:13:41;;;;;;;5.25;2.40;;;742.70;1792.00;;;;;;5106550;28;20027;-80
2022/09/15 11:16:40;;;;;;;6.53;2.05;;;742.50;1817.60;;;;;;5107336;28;20049;-84
2022/09/15 11:19:13;;;;;;;6.00;2.78;;;742.40;1817.60;;;;;;5098451;28;20030;-82
2022/09/15 11:21:48;;;;;;;6.15;2.17;;;717.70;1843.20;;;;;;5102971;28;20031;-82
2022/09/15 11:24:40;;;;;;;6.07;2.50;;;717.70;1792.00;;;;;;5097160;28;20031;-83
2022/09/15 11:27:27;;;;;;;16.75;3.25;;;717.70;1817.60;;;;;;5106264;28;20495;-83
2022/09/15 11:30:06;;;;;;;8.50;3.45;;;742.50;1843.20;;;;;;5081422;28;20426;-83
2022/09/15 11:32:54;;;;;;;10.00;2.85;;;742.70;1843.20;;;;;;5093988;28;20080;-83
2022/09/15 11:35:45;;;;;;;4.13;2.00;;;742.80;1843.20;;;;;;5093098;28;20492;-82
2022/09/15 11:38:20;;;;;;;7.05;3.00;;;742.70;1766.40;;;;;;5093160;28;20116;-82
2022/09/15 11:41:14;;;;;;;5.50;2.22;;;742.60;1792.00;;;;;;5130943;27;20035;-83
2022/09/15 11:43:52;;;;;;;9.55;2.30;;;742.50;1792.00;;;;;;5104467;28;20019;-82
2022/09/15 11:46:24;;;;;;;11.30;2.80;;;742.50;1817.60;;;;;;5101792;28;20028;-83
2022/09/15 11:49:21;;;;;;;5.90;2.70;;;742.40;1843.20;;;;;;5102055;28;20046;-83
2022/09/15 11:51:53;;;;;;;4.07;2.20;;;742.40;1843.20;;;;;;5101993;28;20048;-82
2022/09/15 11:54:33;;;;;;;5.57;2.55;;;742.40;1868.80;;;;;;5087299;28;20019;-82
2022/09/15 11:56:59;;;;;;;6.57;2.60;;;717.70;1868.80;;;;;;5087071;28;20036;-82
2022/09/15 11:59:48;;;;;;;6.95;2.58;;;717.70;1868.80;;;;;;5093051;28;20035;-82
2022/09/15 12:02:53;;;;;;;5.78;2.80;;;717.60;1894.40;;;;;;5081392;28;20036;-82
2022/09/15 12:05:28;;;;;;;5.63;3.00;;;717.60;1843.20;;;;;;5074871;28;20103;-81
2022/09/15 12:08:17;;;;;;;7.33;2.53;;;717.60;1868.80;;;;;;5076207;28;20135;-82
2022/09/15 12:10:48;;;;;;;12.40;3.15;;;717.60;1868.80;;;;;;5078809;28;20123;-83
2022/09/15 12:13:22;;;;;;;8.68;2.40;;;717.60;1868.80;;;;;;5075133;28;20032;-83
2022/09/15 12:15:50;;;;;;;11.55;2.85;;;717.70;1868.80;;;;;;5074730;28;20024;-82
2022/09/15 12:18:31;;;;;;;7.22;2.95;;;717.70;1868.80;;;;;;5074562;28;20020;-82
2022/09/15 12:20:56;;;;;;;4.93;2.42;;;717.70;1868.80;;;;;;5091783;28;20040;-83
2022/09/15 12:23:53;;;;;;;6.88;2.75;;;717.70;1843.20;;;;;;5074029;28;20032;-83
2022/09/15 12:26:20;;;;;;;;;;;717.70;1868.80;;;;;;5074423;28;20090;-83
2022/09/15 12:28:49;;;;;;;7.95;2.63;;;717.70;1894.40;;;;;;5086772;28;20349;-82
2022/09/15 12:31:32;;;;;;;11.85;3.13;;;717.70;1843.20;;;;;;5077795;28;20035;-82
2022/09/15 12:34:17;;;;;;;8.43;2.80;;;717.70;1894.40;;;;;;5091539;28;20366;-81
2022/09/15 12:36:48;;;;;;;7.55;2.72;;;717.70;1868.80;;;;;;5093289;28;20020;-82